Time;durP1;ratioP1;P1;durP2;ratioP2;P2;SDS_P1;SDS_P2;PMS_P1;PMS_P2;Temp;Humidity;BMP_temperature;BMP_pressure;BME280_temperature;BME280_humidity;BME280_pressure;Samples;Min_cycle;Max_cycle;Signal;HPM_P1;HPM_P2
2022/06/04 00:01:26;;;;;;;30.17;9.00;;;17.40;43.00;;;;;;4970234;28;20485;-68
2022/06/04 00:03:52;;;;;;;31.10;9.60;;;17.40;43.00;;;;;;4971205;28;20461;-65
2022/06/04 00:06:21;;;;;;;29.80;10.50;;;17.30;43.00;;;;;;4971064;28;20830;-65
2022/06/04 00:08:47;;;;;;;77.00;11.50;;;17.30;43.40;;;;;;4970099;28;20489;-65
2022/06/04 00:16:43;;;;;;;33.23;11.83;;;17.30;43.70;;;;;;4987289;28;20460;-64
2022/06/04 00:19:10;;;;;;;32.67;12.93;;;17.30;44.00;;;;;;4988165;28;20488;-65
2022/06/04 00:21:38;;;;;;;36.13;15.20;;;17.30;44.20;;;;;;4970745;28;20481;-64
2022/06/04 00:24:06;;;;;;;48.20;14.90;;;17.30;44.70;;;;;;4969066;28;20497;-65
2022/06/04 00:26:33;;;;;;;83.63;16.40;;;17.30;45.10;;;;;;4973371;28;20971;-65
2022/06/04 00:29:00;;;;;;;50.87;14.00;;;17.30;45.90;;;;;;4988257;28;20500;-65
2022/06/04 00:31:26;;;;;;;37.60;11.07;;;17.30;45.30;;;;;;4977238;28;20473;-64
2022/06/04 00:33:53;;;;;;;30.93;11.03;;;17.30;45.60;;;;;;4970342;28;20833;-66
2022/06/04 00:36:20;;;;;;;61.37;10.40;;;17.30;45.60;;;;;;4970928;28;20457;-66
2022/06/04 00:38:48;;;;;;;55.10;10.57;;;17.40;46.00;;;;;;4970265;28;20464;-66
2022/06/04 00:41:27;;;;;;;37.70;11.10;;;17.30;45.10;;;;;;4970756;28;20480;-66
2022/06/04 00:44:00;;;;;;;37.33;9.63;;;17.20;45.30;;;;;;4989107;28;20460;-66
2022/06/04 00:47:10;;;;;;;28.90;8.83;;;17.20;45.00;;;;;;4989773;28;20455;-65
2022/06/04 00:49:36;;;;;;;34.60;8.97;;;17.10;45.20;;;;;;4989981;28;20541;-65
2022/06/04 00:52:06;;;;;;;29.43;9.87;;;17.10;44.80;;;;;;4980028;28;20485;-65
2022/06/04 00:54:35;;;;;;;28.87;9.07;;;17.10;45.00;;;;;;4970401;28;20485;-65
2022/06/04 00:57:20;;;;;;;29.60;9.73;;;17.10;44.90;;;;;;4979760;28;20457;-65
2022/06/04 00:59:58;;;;;;;29.77;7.97;;;17.10;45.00;;;;;;4983374;28;21221;-65
2022/06/04 01:02:32;;;;;;;30.73;9.37;;;17.00;44.70;;;;;;4986587;28;20483;-64
2022/06/04 01:05:05;;;;;;;30.53;9.90;;;17.00;44.40;;;;;;4989269;28;20464;-64
2022/06/04 01:07:58;;;;;;;30.33;9.17;;;17.00;44.70;;;;;;4988967;28;20512;-65
2022/06/04 01:10:39;;;;;;;34.20;10.67;;;17.10;44.70;;;;;;4986188;28;21170;-64
2022/06/04 01:13:19;;;;;;;33.10;9.93;;;17.10;44.60;;;;;;4984931;28;20458;-64
2022/06/04 01:15:52;;;;;;;34.87;11.53;;;17.20;44.70;;;;;;4986813;28;20452;-65
2022/06/04 01:18:35;;;;;;;41.43;12.23;;;17.10;44.80;;;;;;4989384;28;20437;-65
2022/06/04 01:21:11;;;;;;;40.20;13.63;;;17.20;45.00;;;;;;4987658;28;20492;-64
2022/06/04 01:24:07;;;;;;;40.87;11.87;;;17.20;45.20;;;;;;4988349;28;20484;-65
2022/06/04 01:27:04;;;;;;;48.70;13.10;;;17.20;46.20;;;;;;4989328;28;20467;-64
2022/06/04 01:29:35;;;;;;;38.00;11.70;;;17.20;46.40;;;;;;4989109;28;20560;-66
2022/06/04 01:32:07;;;;;;;39.10;11.73;;;17.20;46.50;;;;;;4985742;28;20472;-64
2022/06/04 01:34:38;;;;;;;45.43;13.07;;;17.20;46.30;;;;;;4988042;28;20475;-64
2022/06/04 01:37:09;;;;;;;45.70;13.17;;;17.20;46.60;;;;;;4988737;28;20515;-65
2022/06/04 01:42:28;;;;;;;36.13;13.50;;;17.30;47.10;;;;;;4988462;28;20428;-66
2022/06/04 01:44:58;;;;;;;38.70;14.07;;;17.30;47.30;;;;;;4980059;28;21144;-67
2022/06/04 01:47:27;;;;;;;39.93;12.90;;;17.30;47.30;;;;;;4981324;28;20460;-66
2022/06/04 01:49:56;;;;;;;36.70;12.47;;;17.30;47.20;;;;;;4989392;28;20485;-65
2022/06/04 01:52:27;;;;;;;32.83;11.70;;;17.30;47.20;;;;;;4988129;28;20571;-66
2022/06/04 01:54:57;;;;;;;36.50;13.90;;;17.40;46.70;;;;;;4981827;28;20474;-65
2022/06/04 01:57:30;;;;;;;34.63;11.53;;;17.40;46.70;;;;;;4969472;28;21085;-66
2022/06/04 02:00:01;;;;;;;43.30;11.77;;;17.40;46.50;;;;;;4969279;28;20481;-67
2022/06/04 02:02:32;;;;;;;33.47;11.33;;;17.40;46.40;;;;;;4968417;28;21044;-66
2022/06/04 02:05:03;;;;;;;33.10;12.20;;;17.40;46.50;;;;;;4969814;28;20465;-66
2022/06/04 02:07:33;;;;;;;38.40;12.07;;;17.40;46.10;;;;;;4988782;28;20464;-66
2022/06/04 02:10:05;;;;;;;38.60;13.03;;;17.40;46.50;;;;;;4986806;28;20491;-66
2022/06/04 02:12:34;;;;;;;47.00;13.20;;;17.40;46.50;;;;;;4988851;28;20457;-66
2022/06/04 02:15:04;;;;;;;35.20;13.70;;;17.40;46.40;;;;;;4988626;28;20461;-66
2022/06/04 02:17:33;;;;;;;35.73;12.47;;;17.50;46.30;;;;;;4986695;28;21167;-66
2022/06/04 02:20:00;;;;;;;37.63;11.80;;;17.50;46.10;;;;;;4988153;28;20993;-66
2022/06/04 02:22:27;;;;;;;45.37;12.83;;;17.60;45.60;;;;;;4988440;28;20465;-66
2022/06/04 02:24:54;;;;;;;37.13;13.60;;;17.60;45.40;;;;;;4987480;28;20468;-66
2022/06/04 02:27:20;;;;;;;42.53;13.23;;;17.60;45.40;;;;;;4987324;28;20855;-66
2022/06/04 02:29:48;;;;;;;40.63;13.53;;;17.70;46.00;;;;;;4988520;28;20486;-66
2022/06/04 02:32:22;;;;;;;43.03;15.03;;;17.80;45.60;;;;;;4987887;28;20503;-66
2022/06/04 02:34:58;;;;;;;46.87;14.73;;;17.70;45.50;;;;;;4987759;28;20953;-66
2022/06/04 02:37:30;;;;;;;39.93;14.90;;;17.70;45.50;;;;;;4970026;28;20461;-66
2022/06/04 02:40:04;;;;;;;35.33;14.30;;;17.70;46.10;;;;;;4985174;28;20484;-66
2022/06/04 02:42:35;;;;;;;56.03;15.70;;;17.70;45.80;;;;;;4988533;28;20480;-66
2022/06/04 02:45:07;;;;;;;44.57;15.40;;;17.70;45.50;;;;;;4987703;28;20452;-66
2022/06/04 02:47:40;;;;;;;40.03;14.60;;;17.70;45.70;;;;;;4980514;28;20479;-66
2022/06/04 02:50:13;;;;;;;50.73;17.33;;;17.70;45.60;;;;;;4987634;28;20508;-66
2022/06/04 02:52:41;;;;;;;38.00;16.57;;;17.70;45.60;;;;;;4988407;28;20515;-64
2022/06/04 02:55:11;;;;;;;47.80;15.60;;;17.60;45.50;;;;;;4986148;28;20464;-66
2022/06/04 02:57:43;;;;;;;45.83;16.03;;;17.60;45.50;;;;;;4986349;28;20465;-65
2022/06/04 03:00:13;;;;;;;50.30;17.07;;;17.60;45.60;;;;;;4988330;28;20487;-64
2022/06/04 03:02:40;;;;;;;46.50;17.23;;;17.50;45.70;;;;;;4987574;28;20452;-64
2022/06/04 03:05:10;;;;;;;42.57;17.90;;;17.60;46.10;;;;;;4990498;28;20461;-64
2022/06/04 03:07:40;;;;;;;59.97;19.23;;;17.60;46.10;;;;;;4989716;28;20483;-64
2022/06/04 03:10:11;;;;;;;45.10;18.17;;;17.60;46.00;;;;;;4990565;28;20506;-64
2022/06/04 03:12:37;;;;;;;55.23;18.30;;;17.50;46.40;;;;;;4991602;28;20456;-66
2022/06/04 03:15:06;;;;;;;71.10;19.23;;;17.50;46.40;;;;;;4991493;28;21272;-64
2022/06/04 03:17:34;;;;;;;73.30;19.50;;;17.50;46.80;;;;;;4985736;28;20469;-65
2022/06/04 03:20:00;;;;;;;98.80;19.10;;;17.50;46.80;;;;;;4980150;28;20492;-65
2022/06/04 03:22:27;;;;;;;45.13;18.60;;;17.40;46.80;;;;;;4991162;28;20464;-64
2022/06/04 03:24:54;;;;;;;41.20;17.63;;;17.40;46.70;;;;;;4989827;28;20476;-64
2022/06/04 03:27:21;;;;;;;116.93;18.00;;;17.40;47.20;;;;;;4991259;28;20472;-64
2022/06/04 03:29:47;;;;;;;93.60;19.53;;;17.40;47.60;;;;;;4986765;28;20517;-66
2022/06/04 03:32:14;;;;;;;95.27;18.40;;;17.40;47.50;;;;;;4971131;28;20558;-66
2022/06/04 03:34:42;;;;;;;65.50;18.73;;;17.40;47.50;;;;;;4971833;28;20474;-64
2022/06/04 03:37:09;;;;;;;88.50;16.97;;;17.30;47.50;;;;;;4971542;28;20461;-66
2022/06/04 03:39:36;;;;;;;59.00;15.87;;;17.40;47.50;;;;;;4978713;28;20492;-65
2022/06/04 03:42:04;;;;;;;64.00;15.00;;;17.40;47.90;;;;;;4971651;28;20468;-65
2022/06/04 03:44:31;;;;;;;45.43;15.47;;;17.40;47.70;;;;;;4971819;28;20461;-65
2022/06/04 03:46:58;;;;;;;61.90;15.57;;;17.50;47.70;;;;;;4976653;28;21205;-65
2022/06/04 03:49:24;;;;;;;80.10;14.80;;;17.50;47.80;;;;;;4990843;28;20484;-65
2022/06/04 03:51:53;;;;;;;48.07;15.10;;;17.50;47.20;;;;;;4976981;28;20473;-64
2022/06/04 03:54:52;;;;;;;69.77;15.77;;;17.40;47.20;;;;;;4972621;28;20468;-64
2022/06/04 03:59:52;;;;;;;100.80;14.13;;;17.40;47.00;;;;;;4990809;28;20460;-64
2022/06/04 04:02:19;;;;;;;55.10;14.13;;;17.50;47.30;;;;;;4975520;28;20481;-64
2022/06/04 04:04:45;;;;;;;41.27;13.73;;;17.50;46.90;;;;;;4971059;28;20468;-66
2022/06/04 04:07:14;;;;;;;49.00;13.57;;;17.50;47.00;;;;;;4969962;28;20461;-64
2022/06/04 04:09:41;;;;;;;77.23;13.73;;;17.50;47.40;;;;;;4977152;28;20520;-64
2022/06/04 04:12:08;;;;;;;83.20;13.63;;;17.50;46.90;;;;;;4989439;28;20472;-64
2022/06/04 04:14:35;;;;;;;41.30;12.60;;;17.50;46.70;;;;;;4990548;28;20468;-64
2022/06/04 04:17:02;;;;;;;37.63;11.83;;;17.50;46.60;;;;;;4989677;28;20840;-64
2022/06/04 04:19:31;;;;;;;59.30;12.63;;;17.50;46.30;;;;;;4989591;28;20571;-64
2022/06/04 04:21:57;;;;;;;55.93;12.60;;;17.50;46.40;;;;;;4985595;28;20462;-64
2022/06/04 04:24:25;;;;;;;54.40;13.03;;;17.50;45.90;;;;;;4971696;28;20469;-64
2022/06/04 04:26:52;;;;;;;49.07;12.73;;;17.50;46.00;;;;;;4990064;28;20469;-64
2022/06/04 04:29:19;;;;;;;41.17;13.50;;;17.50;46.00;;;;;;4989590;28;20495;-64
2022/06/04 04:31:46;;;;;;;31.53;11.40;;;17.60;46.10;;;;;;4989246;28;20527;-64
2022/06/04 04:34:13;;;;;;;33.93;12.40;;;17.60;46.10;;;;;;4969592;28;20457;-64
2022/06/04 04:36:40;;;;;;;33.10;11.50;;;17.70;46.30;;;;;;4969999;28;20464;-65
2022/06/04 04:39:07;;;;;;;32.07;11.00;;;17.70;46.40;;;;;;4971388;28;20622;-64
2022/06/04 04:41:36;;;;;;;31.93;11.80;;;17.70;45.80;;;;;;4989841;28;20457;-64
2022/06/04 04:44:03;;;;;;;31.90;11.20;;;17.80;45.50;;;;;;4989070;28;20457;-64
2022/06/04 04:46:30;;;;;;;33.93;12.87;;;17.80;45.10;;;;;;4988365;28;20967;-64
2022/06/04 04:48:57;;;;;;;31.90;10.83;;;17.80;44.80;;;;;;4988947;28;20480;-64
2022/06/04 04:51:26;;;;;;;31.40;10.93;;;17.80;44.60;;;;;;4988547;28;20461;-64
2022/06/04 04:53:54;;;;;;;35.93;11.60;;;17.80;44.30;;;;;;4989571;28;20468;-64
2022/06/04 04:56:23;;;;;;;30.70;11.00;;;17.80;44.10;;;;;;4988869;28;20962;-64
2022/06/04 04:58:51;;;;;;;31.77;12.17;;;17.70;44.00;;;;;;4983246;28;20462;-64
2022/06/04 05:01:20;;;;;;;39.00;12.10;;;17.80;44.10;;;;;;4969311;28;20465;-64
2022/06/04 05:03:47;;;;;;;34.43;12.00;;;17.80;44.20;;;;;;4969615;28;20465;-64
2022/06/04 05:06:16;;;;;;;36.03;11.57;;;17.80;44.20;;;;;;4975482;28;20473;-64
2022/06/04 05:08:43;;;;;;;38.30;12.37;;;17.80;44.10;;;;;;4986668;28;20468;-64
2022/06/04 05:11:12;;;;;;;34.87;11.67;;;17.80;43.90;;;;;;4969233;28;20962;-64
2022/06/04 05:13:38;;;;;;;32.97;12.20;;;17.90;43.60;;;;;;4969527;28;21308;-64
2022/06/04 05:16:07;;;;;;;32.40;12.53;;;17.90;43.50;;;;;;4969812;28;20492;-64
2022/06/04 05:18:34;;;;;;;34.10;11.77;;;17.90;43.40;;;;;;4969772;28;21010;-64
2022/06/04 05:21:08;;;;;;;32.97;12.30;;;17.90;43.50;;;;;;4983643;28;20492;-64
2022/06/04 05:23:35;;;;;;;33.30;12.13;;;17.90;43.60;;;;;;4988532;28;20491;-64
2022/06/04 05:26:02;;;;;;;32.87;12.60;;;18.00;43.30;;;;;;4987702;28;20475;-65
2022/06/04 05:28:28;;;;;;;34.40;13.10;;;18.20;43.00;;;;;;4989205;28;20461;-65
2022/06/04 05:30:55;;;;;;;32.80;12.37;;;18.30;42.60;;;;;;4975083;28;20472;-65
2022/06/04 05:33:23;;;;;;;33.93;13.60;;;18.30;42.20;;;;;;4969532;28;20488;-65
2022/06/04 05:35:50;;;;;;;34.17;12.97;;;18.30;42.60;;;;;;4972600;28;20468;-64
2022/06/04 05:38:17;;;;;;;35.67;14.67;;;18.20;42.60;;;;;;4987934;28;20974;-64
2022/06/04 05:40:44;;;;;;;36.20;14.57;;;18.10;42.80;;;;;;4985734;28;20492;-65
2022/06/04 05:43:11;;;;;;;34.00;12.10;;;18.00;42.90;;;;;;4989328;28;20460;-65
2022/06/04 05:45:37;;;;;;;34.43;12.73;;;17.90;43.30;;;;;;4988149;28;21200;-64
2022/06/04 05:48:05;;;;;;;33.17;12.63;;;17.80;43.30;;;;;;4987394;28;20471;-66
2022/06/04 05:50:33;;;;;;;32.50;12.60;;;17.70;43.70;;;;;;4985097;28;20519;-66
2022/06/04 05:53:00;;;;;;;33.90;14.17;;;17.70;43.90;;;;;;4968662;28;20955;-65
2022/06/04 05:55:26;;;;;;;37.90;15.17;;;17.70;44.20;;;;;;4977918;28;20468;-66
2022/06/04 05:57:53;;;;;;;30.77;10.80;;;17.70;44.40;;;;;;4988146;28;20599;-65
2022/06/04 06:00:20;;;;;;;27.83;8.60;;;17.90;45.90;;;;;;4987873;28;20480;-65
2022/06/04 06:02:47;;;;;;;29.27;8.60;;;18.00;45.80;;;;;;4970837;28;20466;-65
2022/06/04 06:05:13;;;;;;;29.40;9.03;;;18.10;45.80;;;;;;4968892;28;20496;-64
2022/06/04 06:07:41;;;;;;;29.10;9.10;;;18.20;45.20;;;;;;4969055;28;20470;-65
2022/06/04 06:10:09;;;;;;;28.70;8.73;;;18.30;45.10;;;;;;4968416;28;20485;-65
2022/06/04 06:12:36;;;;;;;29.03;8.90;;;18.50;44.70;;;;;;4969348;28;20473;-65
2022/06/04 06:15:03;;;;;;;28.17;8.10;;;18.70;44.70;;;;;;4969193;28;20469;-65
2022/06/04 06:17:29;;;;;;;29.40;9.10;;;19.20;44.80;;;;;;4968062;28;20474;-64
2022/06/04 06:19:56;;;;;;;28.57;8.27;;;20.30;43.00;;;;;;4968458;28;20521;-65
2022/06/04 06:22:23;;;;;;;28.60;7.63;;;21.50;41.70;;;;;;4968004;28;20476;-65
2022/06/04 06:24:51;;;;;;;28.27;6.17;;;24.10;34.10;;;;;;4968486;28;20458;-65
2022/06/04 06:27:18;;;;;;;29.80;6.70;;;26.20;25.80;;;;;;4968284;28;20462;-65
2022/06/04 06:29:44;;;;;;;27.50;5.10;;;26.20;24.10;;;;;;4968786;28;20482;-65
2022/06/04 06:32:12;;;;;;;27.17;5.00;;;27.80;22.10;;;;;;4967963;28;20918;-64
2022/06/04 06:34:39;;;;;;;27.43;4.27;;;29.10;17.30;;;;;;4968162;28;21019;-63
2022/06/04 06:37:05;;;;;;;27.27;4.00;;;28.10;15.90;;;;;;4977098;28;20469;-63
2022/06/04 06:39:32;;;;;;;26.40;4.07;;;27.70;16.20;;;;;;4989346;28;20480;-63
2022/06/04 06:42:01;;;;;;;26.27;4.00;;;27.40;17.10;;;;;;4990473;28;20472;-64
2022/06/04 06:44:28;;;;;;;24.67;3.07;;;29.40;15.30;;;;;;4990825;28;20457;-64
2022/06/04 06:46:55;;;;;;;25.80;3.67;;;31.90;11.70;;;;;;4991907;28;20457;-65
2022/06/04 06:49:25;;;;;;;23.70;2.90;;;34.20;8.20;;;;;;4991666;28;20496;-64
2022/06/04 06:51:54;;;;;;;24.60;2.40;;;36.10;4.60;;;;;;4991777;28;20460;-65
2022/06/04 06:54:23;;;;;;;23.97;2.97;;;37.60;3.40;;;;;;4991093;28;20962;-64
2022/06/04 06:56:51;;;;;;;24.30;2.70;;;39.10;1.00;;;;;;4991542;28;20950;-65
2022/06/04 06:59:21;;;;;;;23.60;2.80;;;40.40;1.00;;;;;;4992029;28;20575;-65
2022/06/04 07:01:48;;;;;;;21.77;2.40;;;41.60;1.00;;;;;;4990841;28;20477;-65
2022/06/04 07:04:15;;;;;;;22.97;2.80;;;42.20;1.00;;;;;;4989370;28;20476;-65
2022/06/04 07:06:44;;;;;;;22.70;2.60;;;41.10;1.00;;;;;;4982965;28;20460;-64
2022/06/04 07:09:16;;;;;;;23.90;2.70;;;39.70;1.00;;;;;;4987495;28;20491;-64
2022/06/04 07:11:44;;;;;;;23.10;2.77;;;37.70;1.00;;;;;;4989855;28;20461;-65
2022/06/04 07:14:11;;;;;;;24.37;3.20;;;35.80;1.00;;;;;;4986490;28;20464;-65
2022/06/04 07:16:40;;;;;;;23.07;3.00;;;34.30;3.70;;;;;;4972590;28;20468;-65
2022/06/04 07:19:07;;;;;;;23.67;2.90;;;33.20;5.30;;;;;;4984358;28;21031;-64
2022/06/04 07:21:34;;;;;;;23.57;3.20;;;32.50;6.10;;;;;;4990830;28;20467;-65
2022/06/04 07:24:02;;;;;;;25.20;3.87;;;32.90;6.50;;;;;;4989538;28;20495;-64
2022/06/04 07:26:30;;;;;;;26.13;3.30;;;33.50;5.80;;;;;;4987555;28;20977;-65
2022/06/04 07:28:56;;;;;;;24.80;3.00;;;34.80;4.40;;;;;;4990062;28;20469;-64
2022/06/04 07:31:24;;;;;;;25.47;2.63;;;35.30;3.60;;;;;;4990597;28;20853;-64
2022/06/04 07:33:53;;;;;;;23.40;3.00;;;37.00;2.60;;;;;;4991864;28;20471;-64
2022/06/04 07:36:21;;;;;;;24.90;2.87;;;37.10;1.00;;;;;;4987771;28;20460;-64
2022/06/04 07:38:48;;;;;;;24.20;2.60;;;36.30;1.10;;;;;;4991012;28;21145;-65
2022/06/04 07:41:19;;;;;;;24.10;2.93;;;37.40;1.00;;;;;;4988896;28;20472;-64
2022/06/04 07:43:46;;;;;;;23.07;2.87;;;39.40;1.00;;;;;;4990251;28;20460;-65
2022/06/04 07:46:13;;;;;;;23.90;3.20;;;41.80;1.00;;;;;;4988874;28;20469;-65
2022/06/04 07:48:40;;;;;;;21.93;2.73;;;43.80;1.00;;;;;;4992402;28;20469;-65
2022/06/04 07:51:08;;;;;;;22.40;2.80;;;44.60;1.00;;;;;;4990512;28;20480;-65
2022/06/04 07:53:35;;;;;;;22.30;2.50;;;42.20;1.00;;;;;;4989261;28;21116;-65
2022/06/04 07:56:05;;;;;;;21.57;2.30;;;39.70;1.00;;;;;;4981948;28;20470;-65
2022/06/04 07:58:32;;;;;;;22.63;2.80;;;37.80;1.00;;;;;;4971059;28;20462;-65
2022/06/04 08:01:00;;;;;;;22.47;2.63;;;36.60;1.00;;;;;;4970648;28;21016;-65
2022/06/04 08:03:26;;;;;;;23.20;2.90;;;35.30;1.00;;;;;;4985552;28;20472;-65
2022/06/04 08:05:54;;;;;;;23.57;3.30;;;34.50;1.80;;;;;;4984936;28;20476;-65
2022/06/04 08:08:22;;;;;;;26.40;3.57;;;33.70;3.00;;;;;;4979733;28;20462;-65
2022/06/04 08:10:50;;;;;;;23.73;2.90;;;32.80;4.40;;;;;;4985272;28;20500;-65
2022/06/04 08:13:18;;;;;;;25.40;3.40;;;32.40;5.80;;;;;;4986243;28;20468;-65
2022/06/04 08:15:45;;;;;;;25.17;3.70;;;32.90;5.70;;;;;;4984203;28;20500;-65
2022/06/04 08:18:12;;;;;;;24.50;3.40;;;32.90;5.50;;;;;;4985786;28;20469;-65
2022/06/04 08:20:41;;;;;;;24.80;3.90;;;32.60;5.80;;;;;;4984467;28;20524;-65
2022/06/04 08:23:08;;;;;;;24.00;3.50;;;32.30;6.10;;;;;;4983855;28;20960;-65
2022/06/04 08:25:40;;;;;;;23.50;3.40;;;33.70;6.00;;;;;;4983328;28;20468;-65
2022/06/04 08:28:07;;;;;;;23.30;3.00;;;36.20;2.20;;;;;;4983978;28;20968;-65
2022/06/04 08:30:34;;;;;;;23.53;3.43;;;38.50;1.10;;;;;;4986985;28;20476;-65
2022/06/04 08:33:01;;;;;;;22.87;2.90;;;40.80;1.00;;;;;;4985286;28;21020;-64
2022/06/04 08:35:28;;;;;;;23.93;3.63;;;41.60;1.00;;;;;;4989109;28;20468;-65
2022/06/04 08:37:55;;;;;;;23.03;3.20;;;42.90;1.00;;;;;;4988606;28;20472;-64
2022/06/04 08:40:28;;;;;;;23.10;3.40;;;43.20;1.00;;;;;;4995234;28;20481;-64
2022/06/04 08:43:11;;;;;;;22.90;3.20;;;43.20;1.00;;;;;;4989889;28;20453;-65
2022/06/04 08:45:39;;;;;;;22.93;3.63;;;43.30;1.00;;;;;;4990279;28;20471;-65
2022/06/04 08:48:15;;;;;;;21.43;3.50;;;43.40;1.00;;;;;;4984104;28;20466;-65
2022/06/04 08:50:43;;;;;;;23.20;3.60;;;43.00;1.00;;;;;;4970430;28;20897;-64
2022/06/04 08:53:17;;;;;;;21.97;3.33;;;45.40;1.00;;;;;;4970246;28;20468;-64
2022/06/04 08:58:59;;;;;;;21.93;3.40;;;48.80;1.00;;;;;;4969394;28;20525;-65
2022/06/04 09:01:32;;;;;;;22.93;3.57;;;48.90;1.00;;;;;;4968785;28;20948;-65
2022/06/04 09:04:10;;;;;;;21.60;3.70;;;49.90;1.00;;;;;;4970300;28;20977;-65
2022/06/04 09:06:44;;;;;;;21.00;3.20;;;51.40;1.00;;;;;;4970178;28;20477;-65
2022/06/04 09:09:15;;;;;;;21.47;4.00;;;50.60;1.00;;;;;;4970095;28;20488;-64
2022/06/04 09:11:49;;;;;;;19.90;3.23;;;51.00;1.00;;;;;;4969062;28;20466;-65
2022/06/04 09:14:34;;;;;;;19.53;3.10;;;51.80;1.00;;;;;;4969697;28;20454;-65
2022/06/04 09:17:03;;;;;;;19.47;2.87;;;52.60;1.00;;;;;;4969934;28;20827;-65
2022/06/04 09:19:35;;;;;;;19.40;3.03;;;53.10;1.00;;;;;;4968993;28;20500;-65
2022/06/04 09:22:03;;;;;;;20.13;3.60;;;51.20;1.00;;;;;;4969540;28;20460;-65
2022/06/04 09:24:30;;;;;;;21.40;3.90;;;48.30;1.00;;;;;;4969219;28;20933;-65
2022/06/04 09:27:10;;;;;;;20.47;3.60;;;45.80;1.00;;;;;;4969074;28;20465;-65
2022/06/04 09:29:55;;;;;;;21.40;3.83;;;43.80;1.00;;;;;;4969070;28;20589;-65
2022/06/04 09:32:44;;;;;;;21.77;3.63;;;42.60;1.00;;;;;;4969194;28;20468;-65
2022/06/04 09:35:12;;;;;;;23.43;4.07;;;42.00;1.00;;;;;;4969992;28;20438;-65
2022/06/04 09:37:43;;;;;;;21.77;3.63;;;41.30;1.00;;;;;;4968995;28;20516;-65
2022/06/04 09:40:19;;;;;;;22.80;4.20;;;40.60;1.00;;;;;;4969174;28;20486;-65
2022/06/04 09:42:45;;;;;;;23.67;4.40;;;39.80;1.00;;;;;;4969811;28;20433;-65
2022/06/04 09:45:21;;;;;;;24.87;4.40;;;39.00;1.00;;;;;;4968581;28;20462;-65
2022/06/04 09:47:51;;;;;;;25.47;4.60;;;38.30;1.00;;;;;;4968260;28;21094;-65
2022/06/04 09:50:24;;;;;;;22.47;4.40;;;37.60;1.00;;;;;;4969927;28;20496;-64
2022/06/04 09:53:00;;;;;;;26.50;4.53;;;37.00;1.20;;;;;;4987931;28;20499;-64
2022/06/04 09:55:28;;;;;;;25.80;4.30;;;36.60;1.80;;;;;;4988683;28;20484;-66
2022/06/04 09:57:58;;;;;;;23.87;3.80;;;36.20;2.40;;;;;;4988340;28;20469;-66
2022/06/04 10:00:29;;;;;;;23.07;3.83;;;36.00;1.80;;;;;;4986405;28;20477;-64
2022/06/04 10:02:57;;;;;;;24.43;4.40;;;35.80;2.50;;;;;;4987465;28;20445;-66
2022/06/04 10:05:27;;;;;;;24.40;3.90;;;35.60;2.40;;;;;;4987723;28;20491;-66
2022/06/04 10:07:55;;;;;;;23.47;4.07;;;35.50;2.70;;;;;;4987276;28;20475;-66
2022/06/04 10:10:30;;;;;;;25.77;3.73;;;35.30;2.80;;;;;;4987835;28;20477;-65
2022/06/04 10:15:46;;;;;;;23.13;3.00;;;34.90;3.00;;;;;;4972817;28;20557;-64
2022/06/04 10:18:19;;;;;;;24.20;3.50;;;34.90;1.00;;;;;;4972473;28;20455;-66
2022/06/04 10:21:17;;;;;;;22.90;2.97;;;34.90;1.10;;;;;;4972100;28;20485;-66
2022/06/04 10:23:45;;;;;;;24.00;3.00;;;34.80;1.00;;;;;;4971521;28;20472;-65
2022/06/04 10:26:30;;;;;;;23.30;3.13;;;34.60;2.20;;;;;;4972832;28;20468;-63
2022/06/04 10:29:22;;;;;;;23.70;3.60;;;34.30;1.80;;;;;;4972141;28;20452;-64
2022/06/04 10:32:03;;;;;;;26.20;4.03;;;33.70;2.10;;;;;;4971781;28;20482;-65
2022/06/04 10:34:39;;;;;;;23.33;3.00;;;33.10;2.80;;;;;;4972220;28;20490;-64
2022/06/04 10:37:16;;;;;;;25.20;3.50;;;32.60;3.90;;;;;;4971793;28;21005;-64
2022/06/04 10:39:55;;;;;;;22.87;3.03;;;32.20;5.00;;;;;;4972029;28;20485;-64
2022/06/04 10:42:39;;;;;;;23.10;2.90;;;31.80;4.50;;;;;;4970917;28;21143;-65
2022/06/04 10:45:19;;;;;;;23.63;3.70;;;31.50;6.70;;;;;;4972610;28;20938;-64
2022/06/04 10:47:51;;;;;;;23.47;3.77;;;31.40;8.20;;;;;;4971853;28;20445;-64
2022/06/04 10:50:31;;;;;;;23.50;3.40;;;31.20;8.00;;;;;;4972796;28;20517;-64
2022/06/04 10:53:06;;;;;;;22.40;3.50;;;31.10;8.30;;;;;;4975642;28;20509;-65
2022/06/04 10:55:40;;;;;;;22.67;3.60;;;31.00;8.50;;;;;;4992054;28;20448;-66
2022/06/04 10:58:23;;;;;;;23.10;3.43;;;30.90;9.70;;;;;;4992036;28;20447;-66
2022/06/04 11:00:54;;;;;;;24.17;3.27;;;30.80;9.50;;;;;;4991179;28;20475;-65
2022/06/04 11:03:35;;;;;;;22.27;3.33;;;30.70;10.30;;;;;;4987435;28;20544;-66
2022/06/04 11:06:09;;;;;;;22.30;3.07;;;30.70;10.10;;;;;;4973055;28;20465;-66
2022/06/04 11:08:41;;;;;;;24.67;3.10;;;30.60;9.20;;;;;;4972884;28;20468;-64
2022/06/04 11:11:14;;;;;;;23.43;3.43;;;30.50;9.90;;;;;;4986383;28;21011;-64
2022/06/04 11:13:45;;;;;;;24.70;3.40;;;30.40;10.30;;;;;;4988072;28;20487;-64
2022/06/04 11:16:15;;;;;;;22.40;3.00;;;30.30;10.30;;;;;;4978407;28;20472;-64
2022/06/04 11:18:51;;;;;;;22.87;3.47;;;30.10;10.40;;;;;;4990293;28;20488;-64
2022/06/04 11:21:22;;;;;;;22.00;2.60;;;30.00;10.40;;;;;;4989071;28;20837;-64
2022/06/04 11:23:54;;;;;;;23.73;3.97;;;29.90;10.00;;;;;;4987181;28;20461;-63
2022/06/04 11:26:27;;;;;;;23.67;3.27;;;29.70;10.10;;;;;;4986855;28;20480;-63
2022/06/04 11:28:54;;;;;;;22.67;2.90;;;29.60;10.30;;;;;;4971603;28;20465;-64
2022/06/04 11:31:33;;;;;;;23.90;3.73;;;29.50;9.90;;;;;;4970852;28;20481;-64
2022/06/04 11:34:18;;;;;;;24.40;3.43;;;29.40;10.80;;;;;;4984261;28;20464;-64
2022/06/04 11:36:58;;;;;;;22.17;3.10;;;29.30;11.70;;;;;;4970825;28;20468;-66
2022/06/04 11:39:39;;;;;;;24.40;3.30;;;29.20;11.90;;;;;;4971064;28;20486;-64
2022/06/04 11:42:13;;;;;;;24.80;4.33;;;29.20;11.70;;;;;;4983187;28;20456;-67
2022/06/04 11:44:58;;;;;;;22.97;3.60;;;29.10;12.00;;;;;;4990332;28;20452;-65
2022/06/04 11:47:36;;;;;;;24.10;4.00;;;29.00;11.80;;;;;;4970580;28;20472;-66
2022/06/04 11:50:12;;;;;;;24.70;3.97;;;28.90;12.00;;;;;;4970241;28;20477;-67
2022/06/04 11:52:49;;;;;;;28.70;4.17;;;28.90;10.80;;;;;;4970665;28;20477;-66
2022/06/04 11:55:26;;;;;;;25.70;5.00;;;28.90;11.70;;;;;;4970496;28;20445;-65
2022/06/04 11:58:18;;;;;;;24.90;4.53;;;29.10;13.20;;;;;;4971821;28;20807;-66
2022/06/04 12:00:47;;;;;;;26.13;5.80;;;29.30;12.70;;;;;;4968700;28;20473;-65
2022/06/04 12:03:22;;;;;;;25.97;4.77;;;29.60;12.50;;;;;;4970849;28;20465;-66
2022/06/04 12:05:58;;;;;;;23.43;4.33;;;29.90;11.80;;;;;;4970330;28;20953;-66
2022/06/04 12:08:29;;;;;;;28.27;6.00;;;30.10;11.90;;;;;;4970029;28;21005;-64
2022/06/04 12:11:29;;;;;;;24.77;5.40;;;30.20;12.10;;;;;;4970561;28;20481;-64
2022/06/04 12:14:03;;;;;;;25.73;5.00;;;30.40;11.60;;;;;;4957644;28;20473;-64
2022/06/04 12:16:38;;;;;;;25.53;5.77;;;30.50;11.40;;;;;;4970715;28;20440;-64
2022/06/04 12:25:05;;;;;;;25.10;4.60;;;30.80;9.60;;;;;;4988842;28;20499;-64
2022/06/04 12:27:33;;;;;;;24.80;4.47;;;30.80;9.20;;;;;;4989267;28;20978;-64
2022/06/04 12:30:01;;;;;;;23.97;4.17;;;30.80;9.40;;;;;;4986924;28;20519;-64
2022/06/04 12:32:29;;;;;;;23.80;4.13;;;30.80;9.50;;;;;;4988027;28;20516;-64
2022/06/04 12:35:22;;;;;;;23.40;4.47;;;30.70;9.10;;;;;;4987353;28;20706;-64
2022/06/04 12:37:55;;;;;;;25.37;4.40;;;30.70;9.60;;;;;;4987598;28;20457;-64
2022/06/04 12:40:35;;;;;;;24.93;4.23;;;30.60;9.70;;;;;;4970778;28;20497;-64
2022/06/04 12:43:10;;;;;;;24.20;3.80;;;30.50;9.70;;;;;;4970163;28;20833;-64
2022/06/04 12:45:40;;;;;;;24.77;4.23;;;30.40;10.00;;;;;;4969467;28;20461;-64
2022/06/04 12:48:35;;;;;;;22.80;3.20;;;30.30;9.70;;;;;;4969675;28;20461;-65
2022/06/04 12:51:07;;;;;;;24.50;4.70;;;30.20;10.00;;;;;;4975508;28;20491;-64
2022/06/04 12:53:47;;;;;;;27.27;6.33;;;30.00;10.00;;;;;;4989312;28;20479;-64
2022/06/04 12:56:22;;;;;;;26.33;6.20;;;29.80;10.00;;;;;;4989046;28;20563;-64
2022/06/04 12:58:51;;;;;;;25.97;5.07;;;29.60;10.20;;;;;;4989241;28;20440;-63
2022/06/04 13:01:33;;;;;;;23.57;4.20;;;29.40;10.30;;;;;;4987505;28;20484;-64
2022/06/04 13:04:22;;;;;;;22.73;3.10;;;29.30;11.10;;;;;;4989107;28;20542;-64
2022/06/04 13:06:51;;;;;;;24.73;4.20;;;29.20;11.60;;;;;;4989072;28;20457;-64
2022/06/04 13:09:34;;;;;;;24.90;3.30;;;29.00;11.70;;;;;;4988984;28;20504;-64
2022/06/04 13:12:15;;;;;;;23.93;3.40;;;28.90;11.00;;;;;;4979895;28;20821;-64
2022/06/04 13:14:46;;;;;;;23.97;3.60;;;28.80;10.80;;;;;;4968591;28;20496;-64
2022/06/04 13:17:20;;;;;;;24.40;3.83;;;28.80;10.90;;;;;;4969372;28;20548;-64
2022/06/04 13:20:24;;;;;;;25.13;4.20;;;28.70;11.30;;;;;;4969133;28;20489;-65